Time;durP1;ratioP1;P1;durP2;ratioP2;P2;SDS_P1;SDS_P2;PMS_P1;PMS_P2;Temp;Humidity;BMP_temperature;BMP_pressure;BME280_temperature;BME280_humidity;BME280_pressure;Samples;Min_cycle;Max_cycle;Signal;HPM_P1;HPM_P2
2022/06/25 00:03:50;;;;;;;;;;;;;;;19.66;79.47;100414.78;10544614;28;19924;-64
2022/06/25 00:08:54;;;;;;;;;;;;;;;19.64;78.90;100413.16;10543994;28;19924;-61
2022/06/25 00:13:59;;;;;;;;;;;;;;;19.53;80.75;100418.91;10541889;28;19924;-62
2022/06/25 00:19:02;;;;;;;;;;;;;;;19.52;81.46;100425.09;10542143;28;19924;-65
2022/06/25 00:24:06;;;;;;;;;;;;;;;19.40;82.01;100423.00;10542075;28;20357;-61
2022/06/25 00:29:10;;;;;;;;;;;;;;;19.42;81.49;100422.03;10541725;28;20266;-62
2022/06/25 00:34:13;;;;;;;;;;;;;;;19.27;81.57;100422.69;10541845;28;19924;-63
2022/06/25 00:39:16;;;;;;;;;;;;;;;19.18;83.21;100423.09;10541377;28;19924;-59
2022/06/25 00:44:21;;;;;;;;;;;;;;;19.15;83.57;100425.88;10540975;28;20062;-62
2022/06/25 00:49:24;;;;;;;;;;;;;;;19.11;84.18;100418.16;10541377;28;19953;-61
2022/06/25 00:54:29;;;;;;;;;;;;;;;19.10;83.79;100417.28;10544104;28;20302;-65
2022/06/25 00:59:36;;;;;;;;;;;;;;;19.00;83.64;100412.53;10544301;28;19924;-61
2022/06/25 01:04:39;;;;;;;;;;;;;;;18.95;83.96;100417.97;10543780;28;19928;-62
2022/06/25 01:09:42;;;;;;;;;;;;;;;18.97;84.12;100431.06;10543738;28;19935;-60
2022/06/25 01:14:47;;;;;;;;;;;;;;;18.92;82.84;100427.75;10543771;28;19924;-63
2022/06/25 01:19:50;;;;;;;;;;;;;;;18.92;83.22;100422.50;10543231;28;19924;-64
2022/06/25 01:24:54;;;;;;;;;;;;;;;18.82;84.11;100415.94;10543218;28;19924;-64
2022/06/25 01:29:57;;;;;;;;;;;;;;;18.78;85.06;100411.72;10543109;28;19924;-64
2022/06/25 01:35:00;;;;;;;;;;;;;;;18.65;85.45;100411.41;10542893;28;19924;-63
2022/06/25 01:40:05;;;;;;;;;;;;;;;18.63;86.18;100401.84;10542868;28;19934;-62
2022/06/25 01:45:09;;;;;;;;;;;;;;;18.50;87.29;100392.78;10542611;28;19924;-61
2022/06/25 01:50:14;;;;;;;;;;;;;;;18.46;86.55;100401.72;10542129;28;20207;-64
2022/06/25 01:55:18;;;;;;;;;;;;;;;18.39;87.70;100407.19;10542567;28;20455;-61
2022/06/25 02:00:22;;;;;;;;;;;;;;;18.41;88.37;100409.78;10542511;28;19938;-63
2022/06/25 02:10:44;;;;;;;;;;;;;;;18.21;89.08;100421.06;10542227;28;20346;-60
2022/06/25 02:15:48;;;;;;;;;;;;;;;18.23;89.45;100421.00;10542277;28;19934;-61
2022/06/25 02:20:51;;;;;;;;;;;;;;;18.19;89.90;100419.41;10542105;28;19934;-62
2022/06/25 02:25:56;;;;;;;;;;;;;;;18.09;90.81;100425.94;10541986;28;19924;-64
2022/06/25 02:30:59;;;;;;;;;;;;;;;18.11;90.80;100432.00;10541813;28;19924;-61
2022/06/25 02:36:02;;;;;;;;;;;;;;;18.13;91.82;100427.56;10544933;28;19928;-58
2022/06/25 02:41:06;;;;;;;;;;;;;;;18.05;91.88;100432.25;10549215;28;19924;-61
2022/06/25 02:46:09;;;;;;;;;;;;;;;18.05;92.65;100433.09;10549722;28;19934;-61
2022/06/25 02:51:12;;;;;;;;;;;;;;;17.99;93.56;100432.50;10549075;28;20258;-59
2022/06/25 03:01:39;;;;;;;;;;;;;;;17.99;95.08;100422.84;10548706;28;19924;-63
2022/06/25 03:06:42;;;;;;;;;;;;;;;18.04;95.75;100420.91;10548399;28;19927;-63
2022/06/25 03:11:46;;;;;;;;;;;;;;;18.00;97.01;100419.28;10548194;28;19932;-63
2022/06/25 03:16:50;;;;;;;;;;;;;;;18.06;97.52;100426.09;10548176;28;19930;-63
2022/06/25 03:21:53;;;;;;;;;;;;;;;18.09;97.70;100418.06;10547966;28;19924;-61
2022/06/25 03:26:57;;;;;;;;;;;;;;;18.00;98.63;100421.91;10547688;28;19950;-64
2022/06/25 03:32:02;;;;;;;;;;;;;;;18.11;98.82;100425.00;10547876;28;19939;-63
2022/06/25 03:37:05;;;;;;;;;;;;;;;18.20;99.14;100427.25;10547583;28;19924;-57
2022/06/25 03:42:10;;;;;;;;;;;;;;;18.21;98.02;100426.34;10547137;28;20003;-63
2022/06/25 03:47:13;;;;;;;;;;;;;;;18.28;96.90;100440.94;10546741;28;19960;-62
2022/06/25 03:52:16;;;;;;;;;;;;;;;18.36;95.90;100440.63;10546423;28;19924;-63
2022/06/25 03:57:20;;;;;;;;;;;;;;;18.52;94.44;100446.16;10546449;28;19924;-63
2022/06/25 04:02:23;;;;;;;;;;;;;;;18.61;94.01;100451.00;10546268;28;19928;-61
2022/06/25 04:07:26;;;;;;;;;;;;;;;18.68;93.65;100453.34;10545906;28;19924;-64
2022/06/25 04:12:30;;;;;;;;;;;;;;;18.77;94.01;100452.97;10545679;28;19925;-64
2022/06/25 04:17:33;;;;;;;;;;;;;;;18.86;93.47;100455.19;10545707;28;20250;-62
2022/06/25 04:22:37;;;;;;;;;;;;;;;18.98;92.14;100453.81;10545220;28;19970;-65
2022/06/25 04:33:02;;;;;;;;;;;;;;;19.19;89.97;100466.06;10545064;28;19934;-60
2022/06/25 04:38:05;;;;;;;;;;;;;;;19.23;90.31;100473.75;10544831;28;19954;-65
2022/06/25 04:43:09;;;;;;;;;;;;;;;19.33;89.48;100455.78;10544737;28;19934;-63
2022/06/25 04:48:13;;;;;;;;;;;;;;;19.44;89.03;100456.19;10544668;28;20270;-65
2022/06/25 04:53:17;;;;;;;;;;;;;;;19.49;88.86;100464.72;10544259;28;19935;-65
2022/06/25 04:58:22;;;;;;;;;;;;;;;19.63;87.79;100462.34;10543358;28;19934;-64
2022/06/25 05:03:25;;;;;;;;;;;;;;;19.73;88.02;100468.03;10543893;28;19924;-63
2022/06/25 05:08:28;;;;;;;;;;;;;;;19.80;87.04;100466.81;10543639;28;20261;-61
2022/06/25 05:13:32;;;;;;;;;;;;;;;19.90;87.00;100460.19;10543440;28;19935;-61
2022/06/25 05:18:35;;;;;;;;;;;;;;;19.99;86.42;100468.53;10542968;28;19930;-65
2022/06/25 05:23:38;;;;;;;;;;;;;;;20.17;85.01;100474.75;10542979;28;19924;-61
2022/06/25 05:28:43;;;;;;;;;;;;;;;20.31;84.09;100486.34;10543080;28;20242;-60
2022/06/25 05:33:46;;;;;;;;;;;;;;;20.34;84.30;100480.94;10543079;28;19934;-62
2022/06/25 05:38:49;;;;;;;;;;;;;;;20.45;83.73;100473.34;10542821;28;19935;-62
2022/06/25 05:43:53;;;;;;;;;;;;;;;20.51;83.63;100474.84;10542279;28;19989;-61
2022/06/25 05:48:56;;;;;;;;;;;;;;;20.67;82.58;100474.00;10542527;28;19924;-67
2022/06/25 05:53:59;;;;;;;;;;;;;;;20.75;82.13;100470.13;10542549;28;19934;-65
2022/06/25 05:59:03;;;;;;;;;;;;;;;20.92;81.37;100468.38;10541465;28;19934;-61
2022/06/25 06:04:11;;;;;;;;;;;;;;;20.92;81.44;100472.78;10539150;28;19924;-65
2022/06/25 06:09:14;;;;;;;;;;;;;;;21.00;78.97;100470.66;10541185;28;19924;-62
2022/06/25 06:14:18;;;;;;;;;;;;;;;21.17;77.58;100470.66;10547363;28;19924;-61
2022/06/25 06:19:21;;;;;;;;;;;;;;;21.26;77.58;100473.66;10546976;28;20346;-63
2022/06/25 06:24:24;;;;;;;;;;;;;;;21.37;76.78;100465.16;10547111;28;19938;-64
2022/06/25 06:29:29;;;;;;;;;;;;;;;21.49;76.37;100468.03;10548043;28;19935;-64
2022/06/25 06:34:32;;;;;;;;;;;;;;;21.60;75.45;100459.53;10549760;28;19924;-68
2022/06/25 06:39:35;;;;;;;;;;;;;;;21.77;74.09;100459.47;10549563;28;20270;-62
2022/06/25 06:44:39;;;;;;;;;;;;;;;21.90;73.62;100465.81;10549260;28;19924;-64
2022/06/25 06:49:42;;;;;;;;;;;;;;;22.06;72.72;100468.47;10548972;28;19942;-64
2022/06/25 06:54:45;;;;;;;;;;;;;;;22.14;72.52;100467.09;10545794;28;20270;-63
2022/06/25 06:59:49;;;;;;;;;;;;;;;22.25;70.03;100464.72;10545728;28;20013;-60
2022/06/25 07:04:53;;;;;;;;;;;;;;;22.47;68.84;100465.22;10545815;28;19924;-63
2022/06/25 07:09:56;;;;;;;;;;;;;;;22.58;68.80;100465.50;10548821;28;19946;-61
2022/06/25 07:15:00;;;;;;;;;;;;;;;22.79;67.37;100468.69;10548054;28;19930;-66
2022/06/25 07:20:04;;;;;;;;;;;;;;;22.86;66.98;100468.25;10547219;28;20228;-59
2022/06/25 07:25:07;;;;;;;;;;;;;;;22.97;64.45;100467.59;10547678;28;19930;-61
2022/06/25 07:30:12;;;;;;;;;;;;;;;23.10;62.88;100473.03;10547443;28;19934;-63
2022/06/25 07:35:15;;;;;;;;;;;;;;;23.11;63.00;100474.75;10547721;28;19928;-62
2022/06/25 07:40:18;;;;;;;;;;;;;;;23.16;63.14;100478.78;10546862;28;20254;-67
2022/06/25 07:45:22;;;;;;;;;;;;;;;23.39;60.09;100464.19;10546738;28;19924;-64
2022/06/25 07:55:57;;;;;;;;;;;;;;;23.46;61.69;100455.78;10466848;28;19924;-61
2022/06/25 08:01:01;;;;;;;;;;;;;;;23.74;58.36;100462.88;10266018;27;10000512;-62
2022/06/25 08:06:05;;;;;;;;;;;;;;;23.97;56.43;100462.28;10627637;27;20131;-61
2022/06/25 08:11:07;;;;;;;;;;;;;;;24.07;56.36;100457.28;10627595;27;19924;-61
2022/06/25 08:16:12;;;;;;;;;;;;;;;24.16;55.10;100462.00;10627179;27;20341;-62
2022/06/25 08:21:15;;;;;;;;;;;;;;;24.19;55.00;100454.72;10627154;27;20003;-61
2022/06/25 08:26:20;;;;;;;;;;;;;;;24.16;56.36;100446.94;10626684;27;20397;-61
2022/06/25 08:31:24;;;;;;;;;;;;;;;24.14;56.88;100448.84;10626189;27;20006;-62
2022/06/25 08:36:27;;;;;;;;;;;;;;;24.32;55.21;100447.66;10625936;27;19976;-62
2022/06/25 08:41:30;;;;;;;;;;;;;;;24.68;53.46;100441.69;10626179;27;19933;-62
2022/06/25 08:46:36;;;;;;;;;;;;;;;24.74;54.30;100441.34;10626054;27;19934;-60
2022/06/25 08:51:40;;;;;;;;;;;;;;;24.70;54.72;100445.16;10625962;27;19985;-64
2022/06/25 08:56:43;;;;;;;;;;;;;;;24.82;54.02;100449.63;10623368;27;19927;-64
2022/06/25 09:01:47;;;;;;;;;;;;;;;24.87;53.76;100455.47;10582775;28;20299;-63
2022/06/25 09:06:50;;;;;;;;;;;;;;;25.05;52.88;100446.28;10582706;28;19924;-63
2022/06/25 09:11:55;;;;;;;;;;;;;;;25.23;53.13;100454.81;10582423;28;20358;-62
2022/06/25 09:17:04;;;;;;;;;;;;;;;25.45;51.97;100442.63;10582407;28;19924;-62
2022/06/25 09:22:08;;;;;;;;;;;;;;;25.64;51.05;100443.03;10582247;28;19931;-62
2022/06/25 09:27:11;;;;;;;;;;;;;;;25.73;51.35;100449.50;10583893;28;19934;-63
2022/06/25 09:32:16;;;;;;;;;;;;;;;26.14;49.60;100442.91;10585103;28;19934;-64
2022/06/25 09:37:20;;;;;;;;;;;;;;;26.33;49.49;100431.78;10585171;28;19934;-67
2022/06/25 09:42:24;;;;;;;;;;;;;;;26.57;48.82;100431.78;10584737;28;20029;-64
2022/06/25 09:47:29;;;;;;;;;;;;;;;26.80;48.13;100441.59;10584671;28;19928;-64
2022/06/25 09:52:32;;;;;;;;;;;;;;;27.05;47.31;100431.59;10582558;28;19930;-64
2022/06/25 09:57:36;;;;;;;;;;;;;;;27.21;48.42;100426.75;10581565;28;20254;-63
2022/06/25 10:02:42;;;;;;;;;;;;;;;28.20;45.80;100431.28;10581254;28;20266;-63
2022/06/25 10:08:00;;;;;;;;;;;;;;;28.81;45.88;100427.06;10581974;28;20006;-65
2022/06/25 10:13:04;;;;;;;;;;;;;;;29.36;44.61;100415.19;10581402;28;20018;-62
2022/06/25 10:18:10;;;;;;;;;;;;;;;30.02;43.32;100413.78;10580984;28;19928;-62
2022/06/25 10:23:14;;;;;;;;;;;;;;;30.84;41.44;100407.13;10237484;27;9999663;-64
2022/06/25 10:28:25;;;;;;;;;;;;;;;31.27;40.86;100410.16;10546793;27;20418;-66
2022/06/25 10:33:31;;;;;;;;;;;;;;;31.42;39.91;100388.09;10538293;28;19935;-62
2022/06/25 10:38:34;;;;;;;;;;;;;;;31.79;39.51;100396.09;10538562;28;20305;-63
2022/06/25 10:43:38;;;;;;;;;;;;;;;32.21;39.86;100393.75;10538830;28;20354;-65
2022/06/25 10:48:49;;;;;;;;;;;;;;;32.54;38.07;100391.25;10538136;28;19984;-65
2022/06/25 10:53:52;;;;;;;;;;;;;;;33.12;38.11;100382.66;10538233;28;19924;-64
2022/06/25 10:58:56;;;;;;;;;;;;;;;33.54;36.52;100376.34;10543771;28;19928;-61
2022/06/25 11:04:02;;;;;;;;;;;;;;;33.60;36.79;100361.38;10545341;28;19930;-63
2022/06/25 11:09:06;;;;;;;;;;;;;;;34.10;37.44;100364.09;10544988;28;19924;-64
2022/06/25 11:14:14;;;;;;;;;;;;;;;33.98;36.60;100371.63;10545211;28;19973;-65
2022/06/25 11:19:19;;;;;;;;;;;;;;;34.29;36.19;100371.88;10544850;28;19935;-63
2022/06/25 11:24:23;;;;;;;;;;;;;;;34.97;35.98;100361.63;10585442;27;19934;-62
2022/06/25 11:29:27;;;;;;;;;;;;;;;35.11;34.27;100356.38;10629209;27;19927;-63
2022/06/25 11:34:32;;;;;;;;;;;;;;;35.27;34.88;100359.03;10629488;27;19923;-66
2022/06/25 11:39:35;;;;;;;;;;;;;;;35.07;34.15;100354.19;10629103;27;19923;-62
2022/06/25 11:44:39;;;;;;;;;;;;;;;34.74;33.53;100364.16;10628795;27;19956;-63
2022/06/25 11:49:44;;;;;;;;;;;;;;;35.76;34.05;100359.69;10628975;27;19924;-64
2022/06/25 11:54:48;;;;;;;;;;;;;;;36.02;33.14;100359.44;10628413;27;19924;-66
2022/06/25 11:59:52;;;;;;;;;;;;;;;36.50;32.68;100350.97;10631465;27;19924;-62
2022/06/25 12:04:57;;;;;;;;;;;;;;;36.75;30.73;100360.56;10630748;27;20307;-64
2022/06/25 12:10:01;;;;;;;;;;;;;;;37.19;30.33;100357.94;10630774;27;19931;-61
2022/06/25 12:15:05;;;;;;;;;;;;;;;36.35;32.25;100360.88;10630328;27;19929;-66
2022/06/25 12:20:11;;;;;;;;;;;;;;;36.53;32.91;100356.88;10630228;27;20371;-61
2022/06/25 12:25:23;;;;;;;;;;;;;;;35.94;33.35;100355.75;10630595;27;20010;-63
2022/06/25 12:30:27;;;;;;;;;;;;;;;36.11;32.60;100355.63;10630002;27;19939;-61
2022/06/25 12:35:33;;;;;;;;;;;;;;;35.43;33.42;100355.47;10629401;27;19923;-64
2022/06/25 12:40:40;;;;;;;;;;;;;;;35.15;35.52;100348.75;10630038;27;20010;-61
2022/06/25 12:45:44;;;;;;;;;;;;;;;35.42;34.13;100351.06;10629707;27;19941;-61
2022/06/25 12:50:49;;;;;;;;;;;;;;;35.64;32.99;100356.53;10591680;27;19924;-63
2022/06/25 12:55:52;;;;;;;;;;;;;;;35.77;31.85;100346.03;10586188;28;19937;-60
2022/06/25 13:00:55;;;;;;;;;;;;;;;35.70;32.74;100352.28;10586400;28;20261;-64
2022/06/25 13:05:59;;;;;;;;;;;;;;;34.65;33.12;100349.00;10586305;28;19928;-63
2022/06/25 13:11:02;;;;;;;;;;;;;;;34.44;34.67;100349.50;10585704;28;20365;-62
2022/06/25 13:16:06;;;;;;;;;;;;;;;33.87;35.49;100353.06;10585246;28;20015;-63
2022/06/25 13:21:11;;;;;;;;;;;;;;;34.46;34.58;100342.09;10585158;28;19923;-63
2022/06/25 13:26:14;;;;;;;;;;;;;;;34.78;35.51;100347.47;10585355;28;19924;-61
2022/06/25 13:31:17;;;;;;;;;;;;;;;35.16;34.37;100345.88;10585076;28;19978;-63
2022/06/25 13:36:21;;;;;;;;;;;;;;;35.21;34.69;100348.91;10584934;28;19976;-63
2022/06/25 13:41:24;;;;;;;;;;;;;;;35.22;33.99;100342.50;10585009;28;19957;-61
2022/06/25 13:46:27;;;;;;;;;;;;;;;35.09;32.56;100341.34;10585123;28;20359;-63
2022/06/25 13:51:33;;;;;;;;;;;;;;;34.70;33.80;100341.22;10584897;28;19934;-64
2022/06/25 13:56:36;;;;;;;;;;;;;;;34.87;32.76;100351.84;10584736;28;19934;-66
2022/06/25 14:01:39;;;;;;;;;;;;;;;34.67;33.17;100341.56;10584684;28;20010;-63
2022/06/25 14:06:44;;;;;;;;;;;;;;;34.63;34.21;100341.06;10584693;28;20359;-63
2022/06/25 14:11:47;;;;;;;;;;;;;;;34.65;33.57;100351.69;10584449;28;19924;-61
2022/06/25 14:16:50;;;;;;;;;;;;;;;34.40;33.81;100349.97;10584244;28;20015;-63
2022/06/25 14:21:55;;;;;;;;;;;;;;;34.59;32.60;100345.13;10584295;28;19924;-66
2022/06/25 14:26:58;;;;;;;;;;;;;;;34.64;32.40;100342.75;10584023;28;19924;-64
2022/06/25 14:32:01;;;;;;;;;;;;;;;34.49;34.33;100349.00;10587243;28;19924;-66
2022/06/25 14:42:26;;;;;;;;;;;;;;;32.80;36.71;100345.56;10591545;28;19924;-61
2022/06/25 14:47:29;;;;;;;;;;;;;;;33.14;37.47;100335.72;10591567;28;19924;-65
2022/06/25 14:52:34;;;;;;;;;;;;;;;33.21;34.42;100328.69;10591934;28;19924;-62
2022/06/25 14:57:37;;;;;;;;;;;;;;;33.07;34.77;100323.91;10591329;28;19934;-67
2022/06/25 15:02:40;;;;;;;;;;;;;;;32.98;35.63;100332.94;10591342;28;19927;-64
2022/06/25 15:07:46;;;;;;;;;;;;;;;32.85;35.79;100326.25;10591097;28;19924;-61
2022/06/25 15:12:49;;;;;;;;;;;;;;;32.69;36.30;100329.69;10590466;28;19930;-63
2022/06/25 15:17:52;;;;;;;;;;;;;;;32.55;36.42;100333.78;10590489;28;19931;-63
2022/06/25 15:22:56;;;;;;;;;;;;;;;32.37;36.67;100326.72;10590080;28;19978;-63
2022/06/25 15:27:59;;;;;;;;;;;;;;;32.22;36.47;100331.78;10589971;28;19923;-63
2022/06/25 15:33:02;;;;;;;;;;;;;;;32.08;36.06;100332.31;10589653;28;19928;-62
2022/06/25 15:38:07;;;;;;;;;;;;;;;32.05;36.63;100329.13;10589858;28;19924;-64
2022/06/25 15:43:11;;;;;;;;;;;;;;;31.88;37.29;100327.22;10588822;28;19927;-62
2022/06/25 15:48:14;;;;;;;;;;;;;;;31.69;38.32;100317.44;10589165;28;19972;-63
2022/06/25 15:53:18;;;;;;;;;;;;;;;31.63;37.77;100312.69;10588712;28;19936;-65
2022/06/25 15:58:27;;;;;;;;;;;;;;;31.54;38.68;100316.25;10588787;28;20335;-65
2022/06/25 16:03:30;;;;;;;;;;;;;;;31.45;38.46;100317.16;10588207;28;19934;-64
2022/06/25 16:08:35;;;;;;;;;;;;;;;31.27;37.39;100311.69;10585134;28;20026;-63
2022/06/25 16:13:38;;;;;;;;;;;;;;;30.96;38.18;100320.16;10584923;28;19930;-60
2022/06/25 16:18:41;;;;;;;;;;;;;;;30.84;38.93;100322.16;10261170;27;9999988;-62
2022/06/25 16:23:45;;;;;;;;;;;;;;;30.71;39.64;100318.06;10627122;27;19923;-64
2022/06/25 16:28:48;;;;;;;;;;;;;;;30.60;39.34;100327.97;10626699;27;20265;-65
2022/06/25 16:33:51;;;;;;;;;;;;;;;30.42;39.38;100332.38;10625980;27;19927;-62
2022/06/25 16:38:56;;;;;;;;;;;;;;;30.17;41.12;100332.03;10625682;27;19934;-61
2022/06/25 16:44:02;;;;;;;;;;;;;;;30.07;41.10;100339.22;10625001;27;19923;-63
2022/06/25 16:49:07;;;;;;;;;;;;;;;29.86;40.69;100338.50;10624874;27;19949;-63
2022/06/25 16:54:13;;;;;;;;;;;;;;;29.74;42.13;100340.44;10624094;27;19923;-61
2022/06/25 16:59:16;;;;;;;;;;;;;;;29.58;42.05;100340.09;10624381;27;19923;-62
2022/06/25 17:04:19;;;;;;;;;;;;;;;29.43;41.55;100344.97;10624395;27;19931;-63
2022/06/25 17:09:24;;;;;;;;;;;;;;;29.28;41.73;100350.84;10624203;27;20051;-63
2022/06/25 17:14:28;;;;;;;;;;;;;;;29.08;43.15;100352.53;10623883;27;19928;-66
2022/06/25 17:19:31;;;;;;;;;;;;;;;28.91;44.07;100345.13;10585647;27;19934;-65
2022/06/25 17:24:35;;;;;;;;;;;;;;;28.82;43.88;100351.25;10581854;28;20277;-63
2022/06/25 17:29:38;;;;;;;;;;;;;;;28.66;44.49;100350.88;10583927;28;19942;-69
2022/06/25 17:34:42;;;;;;;;;;;;;;;28.56;44.99;100362.47;10584054;28;19934;-66
2022/06/25 17:39:46;;;;;;;;;;;;;;;28.35;45.27;100357.91;10584979;28;19932;-67
2022/06/25 17:44:52;;;;;;;;;;;;;;;28.21;46.19;100357.38;10228712;27;10000574;-69
2022/06/25 17:49:55;;;;;;;;;;;;;;;28.18;45.90;100355.78;10581513;28;19950;-65
2022/06/25 17:54:59;;;;;;;;;;;;;;;28.08;46.18;100360.19;10581524;28;19923;-66
2022/06/25 18:00:03;;;;;;;;;;;;;;;27.94;46.58;100363.16;10581390;28;19973;-68
2022/06/25 18:05:06;;;;;;;;;;;;;;;27.92;46.87;100370.44;10582889;28;20334;-68
2022/06/25 18:10:11;;;;;;;;;;;;;;;27.87;47.25;100380.59;10590215;28;19934;-64
2022/06/25 18:15:14;;;;;;;;;;;;;;;27.78;47.59;100378.69;10588940;28;19924;-67
2022/06/25 18:20:18;;;;;;;;;;;;;;;27.68;47.83;100382.22;10589511;28;19923;-68
2022/06/25 18:25:23;;;;;;;;;;;;;;;27.59;48.49;100389.16;10589344;28;19923;-66
2022/06/25 18:30:26;;;;;;;;;;;;;;;27.46;48.99;100396.41;10589423;28;19924;-69
2022/06/25 18:35:29;;;;;;;;;;;;;;;27.38;49.40;100405.97;10626565;27;19936;-66
2022/06/25 18:40:34;;;;;;;;;;;;;;;27.23;50.55;100408.00;10631192;27;20030;-66
2022/06/25 18:45:37;;;;;;;;;;;;;;;27.09;50.82;100413.56;10630977;27;19931;-64
2022/06/25 18:50:40;;;;;;;;;;;;;;;26.86;52.65;100418.00;10631106;27;19934;-63
2022/06/25 18:55:45;;;;;;;;;;;;;;;26.75;53.25;100425.09;10630344;27;20404;-63
2022/06/25 19:00:49;;;;;;;;;;;;;;;26.65;53.41;100427.56;10630145;27;19947;-62
2022/06/25 19:05:52;;;;;;;;;;;;;;;26.51;53.82;100430.41;10630188;27;19934;-65
2022/06/25 19:10:56;;;;;;;;;;;;;;;26.36;54.78;100441.34;10630459;27;19923;-67
2022/06/25 19:15:59;;;;;;;;;;;;;;;26.25;55.18;100439.47;10623199;27;19934;-64
2022/06/25 19:21:02;;;;;;;;;;;;;;;26.08;56.25;100445.19;10587090;28;19995;-63
2022/06/25 19:26:07;;;;;;;;;;;;;;;26.05;56.30;100443.59;10586699;28;19924;-63
2022/06/25 19:31:10;;;;;;;;;;;;;;;25.91;57.07;100446.38;10587406;27;19934;-64
2022/06/25 19:36:13;;;;;;;;;;;;;;;25.83;57.76;100458.53;10629174;27;19923;-66
2022/06/25 19:41:17;;;;;;;;;;;;;;;25.84;57.00;100455.75;10628982;27;20413;-65
2022/06/25 19:46:22;;;;;;;;;;;;;;;25.76;57.37;100462.56;10628838;27;20268;-68
2022/06/25 19:51:25;;;;;;;;;;;;;;;25.73;57.28;100465.47;10628788;27;19927;-63
2022/06/25 19:56:32;;;;;;;;;;;;;;;25.65;58.57;100462.47;10628166;27;19935;-65
2022/06/25 20:01:35;;;;;;;;;;;;;;;25.53;58.81;100466.00;10629057;27;19928;-67
2022/06/25 20:06:38;;;;;;;;;;;;;;;25.48;58.72;100474.28;10627883;27;19987;-64
2022/06/25 20:11:43;;;;;;;;;;;;;;;25.36;59.77;100479.56;10628073;27;19924;-62
2022/06/25 20:16:46;;;;;;;;;;;;;;;25.29;59.89;100483.59;10627508;27;19924;-64
2022/06/25 20:21:50;;;;;;;;;;;;;;;25.18;60.55;100487.00;10627126;27;20337;-68
2022/06/25 20:26:54;;;;;;;;;;;;;;;25.13;60.62;100490.94;10626206;27;19924;-65
2022/06/25 20:31:57;;;;;;;;;;;;;;;25.06;61.06;100494.00;10618141;27;19928;-65
2022/06/25 20:37:00;;;;;;;;;;;;;;;25.02;61.32;100494.31;10583777;28;19945;-66
2022/06/25 20:42:25;;;;;;;;;;;;;;;24.93;61.74;100495.78;10583931;27;19940;-65
2022/06/25 20:47:29;;;;;;;;;;;;;;;24.83;62.20;100493.84;10583581;28;19924;-62
2022/06/25 20:52:32;;;;;;;;;;;;;;;23.97;83.68;100508.22;10583155;28;19954;-68
2022/06/25 20:57:37;;;;;;;;;;;;;;;21.18;100.00;100520.72;10583377;28;19984;-67
2022/06/25 21:08:07;;;;;;;;;;;;;;;20.71;100.00;100526.63;10582942;28;19963;-66
2022/06/25 21:13:12;;;;;;;;;;;;;;;21.06;100.00;100524.00;10582903;28;20273;-65
2022/06/25 21:18:15;;;;;;;;;;;;;;;21.17;100.00;100524.31;10582329;28;19938;-61
2022/06/25 21:23:22;;;;;;;;;;;;;;;21.30;100.00;100530.66;10582311;28;19924;-67
2022/06/25 21:28:27;;;;;;;;;;;;;;;21.32;100.00;100528.81;10582408;28;19934;-63
2022/06/25 21:33:30;;;;;;;;;;;;;;;21.41;96.64;100541.53;10602374;27;19924;-63
2022/06/25 21:38:33;;;;;;;;;;;;;;;21.50;93.83;100537.56;10624607;27;19945;-61
2022/06/25 21:43:37;;;;;;;;;;;;;;;21.51;91.46;100548.06;10623996;27;20014;-63
2022/06/25 21:48:40;;;;;;;;;;;;;;;21.48;91.55;100537.66;10623963;27;19933;-64
2022/06/25 21:53:43;;;;;;;;;;;;;;;21.50;89.43;100542.84;10624368;27;20349;-61
2022/06/25 21:58:48;;;;;;;;;;;;;;;21.48;86.90;100542.94;10623832;27;19927;-61
2022/06/25 22:03:51;;;;;;;;;;;;;;;21.46;87.92;100543.94;10624423;27;19923;-64
2022/06/25 22:08:54;;;;;;;;;;;;;;;21.43;85.51;100552.03;10624082;27;19923;-62
2022/06/25 22:13:59;;;;;;;;;;;;;;;21.41;85.09;100548.59;10623669;27;19934;-61
2022/06/25 22:19:02;;;;;;;;;;;;;;;21.45;85.76;100555.44;10623931;27;19930;-66
2022/06/25 22:24:05;;;;;;;;;;;;;;;21.41;84.75;100552.09;10623724;27;19927;-61
2022/06/25 22:29:10;;;;;;;;;;;;;;;21.41;83.93;100559.16;10623675;27;19923;-66
2022/06/25 22:34:14;;;;;;;;;;;;;;;21.39;83.42;100558.38;10596890;27;19955;-65
2022/06/25 22:39:17;;;;;;;;;;;;;;;21.38;85.09;100562.81;10580622;28;19940;-63
2022/06/25 22:44:21;;;;;;;;;;;;;;;21.31;84.90;100576.41;10580394;28;20258;-64
2022/06/25 22:49:25;;;;;;;;;;;;;;;21.26;85.61;100570.50;10580727;28;20343;-62
2022/06/25 22:54:28;;;;;;;;;;;;;;;21.16;84.16;100574.53;10586979;28;20247;-67
2022/06/25 22:59:32;;;;;;;;;;;;;;;21.21;83.98;100569.91;10591452;28;19933;-67
2022/06/25 23:04:35;;;;;;;;;;;;;;;21.18;84.36;100585.88;10590839;28;19939;-67
2022/06/25 23:09:38;;;;;;;;;;;;;;;21.14;85.33;100579.06;10590863;28;19932;-71
2022/06/25 23:14:50;;;;;;;;;;;;;;;21.09;85.44;100581.06;10590780;28;19923;-70
2022/06/25 23:19:53;;;;;;;;;;;;;;;21.06;86.08;100581.19;10590523;28;20231;-67
2022/06/25 23:24:59;;;;;;;;;;;;;;;21.01;86.50;100580.56;10590723;28;20350;-69
2022/06/25 23:30:05;;;;;;;;;;;;;;;20.98;86.04;100578.94;10589956;28;19930;-68
2022/06/25 23:35:08;;;;;;;;;;;;;;;20.91;87.29;100576.66;10590111;28;19924;-67
2022/06/25 23:40:11;;;;;;;;;;;;;;;20.87;88.30;100581.22;10589628;28;19924;-70
2022/06/25 23:45:16;;;;;;;;;;;;;;;20.79;88.76;100577.25;10589673;28;19924;-63
2022/06/25 23:50:19;;;;;;;;;;;;;;;20.77;88.78;100579.97;10589425;28;19923;-69
2022/06/25 23:55:22;;;;;;;;;;;;;;;20.77;86.38;100582.59;10589096;28;19928;-65
